Time;durP1;ratioP1;P1;durP2;ratioP2;P2;SDS_P1;SDS_P2;PMS_P1;PMS_P2;Temp;Humidity;BMP_temperature;BMP_pressure;BME280_temperature;BME280_humidity;BME280_pressure;Samples;Min_cycle;Max_cycle;Signal;HPM_P1;HPM_P2
2022/05/29 00:01:33;;;;;;;;;;;24.40;40.80;;;;;;1608210;72;1183;-71
2022/05/29 00:03:35;;;;;;;;;;;24.40;40.80;;;;;;1595033;73;665;-70
2022/05/29 00:05:37;;;;;;;;;;;24.40;40.70;;;;;;1597662;73;666;-71
2022/05/29 00:07:39;;;;;;;;;;;24.40;40.80;;;;;;1607999;73;552;-70
2022/05/29 00:09:42;;;;;;;;;;;24.40;40.70;;;;;;1587395;73;664;-70
2022/05/29 00:11:44;;;;;;;;;;;24.40;40.80;;;;;;1605904;72;1133;-68
2022/05/29 00:13:46;;;;;;;;;;;24.40;40.80;;;;;;1597919;73;888;-70
2022/05/29 00:15:48;;;;;;;;;;;24.40;40.80;;;;;;1591526;73;856;-69
2022/05/29 00:17:51;;;;;;;;;;;24.40;40.90;;;;;;1611100;73;1924;-69
2022/05/29 00:19:53;;;;;;;;;;;24.40;40.90;;;;;;1600799;73;765;-69
2022/05/29 00:21:57;;;;;;;;;;;24.40;40.80;;;;;;1604172;72;1136;-69
2022/05/29 00:23:59;;;;;;;;;;;24.50;40.90;;;;;;1603542;73;768;-69
2022/05/29 00:26:01;;;;;;;;;;;24.50;40.90;;;;;;1599630;73;723;-69
2022/05/29 00:28:02;;;;;;;;;;;24.40;40.90;;;;;;1607584;73;1340;-69
2022/05/29 00:30:05;;;;;;;;;;;24.40;41.00;;;;;;1598963;73;708;-70
2022/05/29 00:32:07;;;;;;;;;;;24.40;41.00;;;;;;1606834;72;1106;-69
2022/05/29 00:34:09;;;;;;;;;;;24.40;41.00;;;;;;1599582;73;751;-68
2022/05/29 00:36:12;;;;;;;;;;;24.40;41.10;;;;;;1606438;73;701;-68
2022/05/29 00:38:14;;;;;;;;;;;24.40;41.20;;;;;;1595355;73;1930;-69
2022/05/29 00:40:17;;;;;;;;;;;24.40;41.10;;;;;;1602900;73;748;-69
2022/05/29 00:42:19;;;;;;;;;;;24.40;41.20;;;;;;1612299;72;1138;-70
2022/05/29 00:44:23;;;;;;;;;;;24.40;41.00;;;;;;1587146;73;684;-68
2022/05/29 00:46:25;;;;;;;;;;;24.40;41.00;;;;;;1611267;73;698;-68
2022/05/29 00:48:27;;;;;;;;;;;24.40;41.00;;;;;;1603886;73;679;-69
2022/05/29 00:50:29;;;;;;;;;;;24.40;41.00;;;;;;1598939;73;703;-69
2022/05/29 00:52:31;;;;;;;;;;;24.40;41.00;;;;;;1587858;72;1126;-69
2022/05/29 00:54:37;;;;;;;;;;;24.40;41.00;;;;;;1602440;73;690;-68
2022/05/29 00:56:39;;;;;;;;;;;24.40;41.00;;;;;;1596959;73;715;-69
2022/05/29 00:58:41;;;;;;;;;;;24.40;41.20;;;;;;1598955;73;1942;-68
2022/05/29 01:00:43;;;;;;;;;;;24.40;41.20;;;;;;1605875;73;682;-70
2022/05/29 01:02:45;;;;;;;;;;;24.40;41.00;;;;;;1595118;73;1145;-70
2022/05/29 01:04:47;;;;;;;;;;;24.50;41.00;;;;;;1594123;73;844;-70
2022/05/29 01:06:49;;;;;;;;;;;24.40;41.10;;;;;;1610277;73;791;-68
2022/05/29 01:08:51;;;;;;;;;;;24.40;41.10;;;;;;1592107;73;707;-68
2022/05/29 01:10:57;;;;;;;;;;;24.40;41.10;;;;;;1611118;72;1157;-69
2022/05/29 01:13:01;;;;;;;;;;;24.40;41.10;;;;;;1582192;73;1116;-69
2022/05/29 01:15:21;;;;;;;;;;;24.40;41.10;;;;;;1597050;73;785;-69
2022/05/29 01:17:30;;;;;;;;;;;24.40;41.00;;;;;;1593591;73;792;-69
2022/05/29 01:19:40;;;;;;;;;;;24.40;41.00;;;;;;1587995;73;1941;-68
2022/05/29 01:21:44;;;;;;;;;;;24.40;41.00;;;;;;1589682;72;1136;-69
2022/05/29 01:24:03;;;;;;;;;;;24.40;41.10;;;;;;1595267;73;845;-69
2022/05/29 01:26:07;;;;;;;;;;;24.40;41.00;;;;;;1596907;73;698;-69
2022/05/29 01:28:12;;;;;;;;;;;24.40;41.00;;;;;;1596488;73;716;-71
2022/05/29 01:30:21;;;;;;;;;;;24.40;41.10;;;;;;1595383;73;731;-67
2022/05/29 01:32:28;;;;;;;;;;;24.40;41.10;;;;;;1597760;72;1179;-70
2022/05/29 01:34:31;;;;;;;;;;;24.40;41.00;;;;;;1590067;73;1800;-70
2022/05/29 01:36:50;;;;;;;;;;;24.40;41.00;;;;;;1594772;73;629;-70
2022/05/29 01:39:00;;;;;;;;;;;24.40;41.00;;;;;;1593360;73;1941;-70
2022/05/29 01:41:03;;;;;;;;;;;24.30;41.10;;;;;;1605400;73;1141;-71
2022/05/29 01:43:24;;;;;;;;;;;24.30;41.00;;;;;;1589168;73;1963;-70
2022/05/29 01:45:30;;;;;;;;;;;24.30;41.00;;;;;;1590499;73;713;-69
2022/05/29 01:47:34;;;;;;;;;;;24.30;41.00;;;;;;1587961;73;644;-70
2022/05/29 01:49:37;;;;;;;;;;;24.30;40.90;;;;;;1602872;72;1775;-70
2022/05/29 01:51:43;;;;;;;;;;;24.30;40.90;;;;;;1597854;72;1090;-70
2022/05/29 01:53:53;;;;;;;;;;;24.40;41.00;;;;;;1596766;73;831;-70
2022/05/29 01:55:56;;;;;;;;;;;24.30;41.00;;;;;;1606952;73;741;-70
2022/05/29 01:57:59;;;;;;;;;;;24.40;41.10;;;;;;1611255;73;576;-70
2022/05/29 02:00:03;;;;;;;;;;;24.30;41.00;;;;;;1605418;72;1936;-69
2022/05/29 02:02:06;;;;;;;;;;;24.30;41.00;;;;;;1595619;73;1136;-68
2022/05/29 02:04:08;;;;;;;;;;;24.30;40.90;;;;;;1593089;73;758;-69
2022/05/29 02:06:14;;;;;;;;;;;24.30;40.80;;;;;;1603274;73;708;-68
2022/05/29 02:08:18;;;;;;;;;;;24.30;40.80;;;;;;1592346;73;855;-68
2022/05/29 02:10:25;;;;;;;;;;;24.40;40.80;;;;;;1612949;73;673;-69
2022/05/29 02:12:27;;;;;;;;;;;24.40;40.80;;;;;;1607975;72;1145;-69
2022/05/29 02:14:34;;;;;;;;;;;24.40;40.80;;;;;;1611611;73;741;-69
2022/05/29 02:16:37;;;;;;;;;;;24.30;40.70;;;;;;1603740;73;689;-70
2022/05/29 02:18:41;;;;;;;;;;;24.30;40.70;;;;;;1595733;73;1923;-69
2022/05/29 02:20:44;;;;;;;;;;;24.30;40.70;;;;;;1601944;73;1554;-71
2022/05/29 02:22:46;;;;;;;;;;;24.30;40.70;;;;;;1612603;72;1181;-69
2022/05/29 02:24:52;;;;;;;;;;;24.30;40.70;;;;;;1608398;73;799;-69
2022/05/29 02:26:55;;;;;;;;;;;24.30;40.70;;;;;;1610715;73;688;-69
2022/05/29 02:28:59;;;;;;;;;;;24.30;40.60;;;;;;1598993;73;687;-69
2022/05/29 02:31:17;;;;;;;;;;;24.30;40.60;;;;;;1612341;72;1190;-70
2022/05/29 02:33:21;;;;;;;;;;;24.30;40.70;;;;;;1595246;73;643;-69
2022/05/29 02:35:42;;;;;;;;;;;24.30;40.60;;;;;;1607885;73;1977;-69
2022/05/29 02:37:46;;;;;;;;;;;24.30;40.80;;;;;;1592330;73;638;-69
2022/05/29 02:40:05;;;;;;;;;;;24.30;40.70;;;;;;1596037;73;1933;-69
2022/05/29 02:42:08;;;;;;;;;;;24.30;40.60;;;;;;1597259;72;1140;-70
2022/05/29 02:44:15;;;;;;;;;;;24.30;40.50;;;;;;1597392;73;1861;-69
2022/05/29 02:46:18;;;;;;;;;;;24.30;40.50;;;;;;1603705;73;1917;-69
2022/05/29 02:48:22;;;;;;;;;;;24.30;40.50;;;;;;1604530;72;1536;-69
2022/05/29 02:50:44;;;;;;;;;;;24.30;40.50;;;;;;1597728;73;784;-69
2022/05/29 02:52:46;;;;;;;;;;;24.30;40.40;;;;;;1602348;73;1138;-69
2022/05/29 02:54:48;;;;;;;;;;;24.30;40.40;;;;;;1595266;73;793;-69
2022/05/29 02:56:49;;;;;;;;;;;24.30;40.40;;;;;;1602937;73;622;-69
2022/05/29 02:58:52;;;;;;;;;;;24.30;40.40;;;;;;1614692;73;1952;-69
2022/05/29 03:00:58;;;;;;;;;;;24.30;40.30;;;;;;1611454;72;1169;-72
2022/05/29 03:03:17;;;;;;;;;;;24.30;40.40;;;;;;1617364;73;811;-70
2022/05/29 03:05:23;;;;;;;;;;;24.30;40.40;;;;;;1598323;73;1886;-67
2022/05/29 03:07:39;;;;;;;;;;;24.30;40.40;;;;;;1600151;73;785;-69
2022/05/29 03:09:46;;;;;;;;;;;24.30;40.50;;;;;;1609167;73;714;-69
2022/05/29 03:11:48;;;;;;;;;;;24.30;40.30;;;;;;1611617;72;1089;-70
2022/05/29 03:13:51;;;;;;;;;;;24.30;40.30;;;;;;1612475;73;782;-72
2022/05/29 03:16:00;;;;;;;;;;;24.30;40.30;;;;;;1589168;73;681;-69
2022/05/29 03:18:22;;;;;;;;;;;24.30;40.20;;;;;;1605692;73;1710;-69
2022/05/29 03:20:42;;;;;;;;;;;24.20;40.00;;;;;;1600850;73;1940;-69
2022/05/29 03:23:00;;;;;;;;;;;24.30;40.20;;;;;;1590374;73;1147;-69
2022/05/29 03:25:06;;;;;;;;;;;24.30;40.00;;;;;;1601371;73;705;-68
2022/05/29 03:27:16;;;;;;;;;;;24.30;40.00;;;;;;1609231;73;676;-68
2022/05/29 03:29:25;;;;;;;;;;;24.20;39.90;;;;;;1593331;73;810;-69
2022/05/29 03:31:27;;;;;;;;;;;24.30;40.10;;;;;;1611316;72;1192;-69
2022/05/29 03:33:29;;;;;;;;;;;24.30;40.00;;;;;;1607136;73;665;-68
2022/05/29 03:35:32;;;;;;;;;;;24.30;40.00;;;;;;1602468;73;642;-68
2022/05/29 03:37:35;;;;;;;;;;;24.30;40.00;;;;;;1605584;73;688;-68
2022/05/29 03:39:37;;;;;;;;;;;24.30;39.90;;;;;;1607657;73;1935;-70
2022/05/29 03:41:43;;;;;;;;;;;24.30;40.00;;;;;;1609368;72;1119;-68
2022/05/29 03:43:44;;;;;;;;;;;24.30;40.00;;;;;;1586231;73;2425;-69
2022/05/29 03:45:46;;;;;;;;;;;24.30;40.00;;;;;;1606051;73;756;-69
2022/05/29 03:47:48;;;;;;;;;;;24.30;40.00;;;;;;1599120;73;730;-67
2022/05/29 03:49:50;;;;;;;;;;;24.30;40.00;;;;;;1606893;73;778;-70
2022/05/29 03:51:52;;;;;;;;;;;24.30;40.00;;;;;;1603455;72;2064;-67
2022/05/29 03:53:53;;;;;;;;;;;24.40;39.90;;;;;;1595082;73;709;-68
2022/05/29 03:55:55;;;;;;;;;;;24.40;39.80;;;;;;1600268;73;720;-68
2022/05/29 03:57:57;;;;;;;;;;;24.30;39.80;;;;;;1602111;73;562;-68
2022/05/29 03:59:59;;;;;;;;;;;24.30;39.80;;;;;;1602533;73;1938;-69
2022/05/29 04:02:01;;;;;;;;;;;24.30;39.70;;;;;;1609899;72;1188;-70
2022/05/29 04:04:03;;;;;;;;;;;24.30;39.80;;;;;;1588923;73;683;-69
2022/05/29 04:06:05;;;;;;;;;;;24.30;39.70;;;;;;1587281;73;671;-68
2022/05/29 04:12:47;;;;;;;;;;;24.30;39.60;;;;;;1591037;73;1666;-66
2022/05/29 04:14:49;;;;;;;;;;;24.30;39.60;;;;;;1575494;73;665;-70
2022/05/29 04:16:52;;;;;;;;;;;24.30;39.60;;;;;;1600724;73;748;-67
2022/05/29 04:18:55;;;;;;;;;;;24.30;39.60;;;;;;1597611;73;799;-68
2022/05/29 04:20:57;;;;;;;;;;;24.30;39.50;;;;;;1605110;73;1906;-68
2022/05/29 04:22:58;;;;;;;;;;;24.20;39.40;;;;;;1592647;73;1083;-68
2022/05/29 04:25:00;;;;;;;;;;;24.30;39.50;;;;;;1596972;73;761;-69
2022/05/29 04:27:02;;;;;;;;;;;24.30;39.50;;;;;;1598493;73;648;-67
2022/05/29 04:29:05;;;;;;;;;;;24.30;39.60;;;;;;1587617;73;720;-67
2022/05/29 04:31:07;;;;;;;;;;;24.30;39.50;;;;;;1590272;73;690;-67
2022/05/29 04:33:08;;;;;;;;;;;24.30;39.50;;;;;;1584253;73;1106;-68
2022/05/29 04:35:11;;;;;;;;;;;24.30;39.50;;;;;;1600241;73;709;-67
2022/05/29 04:37:12;;;;;;;;;;;24.30;39.40;;;;;;1598598;73;777;-68
2022/05/29 04:39:14;;;;;;;;;;;24.30;39.60;;;;;;1595349;73;671;-67
2022/05/29 04:41:17;;;;;;;;;;;24.30;39.50;;;;;;1594710;73;1937;-68
2022/05/29 04:43:19;;;;;;;;;;;24.30;39.40;;;;;;1600328;73;804;-68
2022/05/29 04:45:20;;;;;;;;;;;24.20;39.30;;;;;;1589455;73;566;-68
2022/05/29 04:47:22;;;;;;;;;;;24.20;39.30;;;;;;1584679;73;653;-69
2022/05/29 04:49:24;;;;;;;;;;;24.30;39.40;;;;;;1584774;73;689;-69
2022/05/29 04:51:26;;;;;;;;;;;24.30;39.40;;;;;;1600356;72;1129;-68
2022/05/29 04:53:28;;;;;;;;;;;24.30;39.40;;;;;;1599849;73;771;-67
2022/05/29 04:55:30;;;;;;;;;;;24.30;39.50;;;;;;1612717;73;693;-67
2022/05/29 04:57:32;;;;;;;;;;;24.30;39.50;;;;;;1599276;73;631;-67
2022/05/29 04:59:34;;;;;;;;;;;24.30;39.50;;;;;;1603489;73;1931;-69
2022/05/29 05:01:36;;;;;;;;;;;24.30;39.50;;;;;;1601141;72;1168;-68
2022/05/29 05:03:38;;;;;;;;;;;24.20;39.40;;;;;;1594694;73;723;-67
2022/05/29 05:05:40;;;;;;;;;;;24.30;39.60;;;;;;1587760;73;591;-69
2022/05/29 05:07:42;;;;;;;;;;;24.20;39.50;;;;;;1573894;73;807;-67
2022/05/29 05:09:44;;;;;;;;;;;24.40;39.60;;;;;;1604367;73;1496;-67
2022/05/29 05:11:46;;;;;;;;;;;24.30;39.50;;;;;;1591533;73;1151;-67
2022/05/29 05:13:47;;;;;;;;;;;24.30;39.50;;;;;;1589950;73;723;-67
2022/05/29 05:15:49;;;;;;;;;;;24.30;39.50;;;;;;1605924;73;676;-68
2022/05/29 05:17:51;;;;;;;;;;;24.30;39.70;;;;;;1602548;73;699;-67
2022/05/29 05:19:53;;;;;;;;;;;24.20;39.60;;;;;;1609188;73;1914;-67
2022/05/29 05:21:55;;;;;;;;;;;24.30;39.60;;;;;;1594760;73;1144;-67
2022/05/29 05:23:57;;;;;;;;;;;24.20;39.50;;;;;;1603580;73;709;-67
2022/05/29 05:25:59;;;;;;;;;;;24.20;39.50;;;;;;1603483;73;637;-68
2022/05/29 05:28:00;;;;;;;;;;;24.30;39.60;;;;;;1604351;73;722;-68
2022/05/29 05:30:02;;;;;;;;;;;24.30;39.70;;;;;;1592751;73;711;-70
2022/05/29 05:32:05;;;;;;;;;;;24.20;39.50;;;;;;1608020;73;1131;-70
2022/05/29 05:34:07;;;;;;;;;;;24.20;39.50;;;;;;1602158;73;696;-68
2022/05/29 05:36:10;;;;;;;;;;;24.30;39.60;;;;;;1583029;73;811;-70
2022/05/29 05:38:12;;;;;;;;;;;24.30;39.60;;;;;;1598261;73;1519;-70
2022/05/29 05:40:14;;;;;;;;;;;24.30;39.60;;;;;;1596836;73;1941;-68
2022/05/29 05:42:16;;;;;;;;;;;24.30;39.70;;;;;;1594081;73;1515;-72
2022/05/29 05:44:18;;;;;;;;;;;24.30;39.70;;;;;;1596494;73;626;-68
2022/05/29 05:46:20;;;;;;;;;;;24.40;39.50;;;;;;1591738;73;669;-68
2022/05/29 05:48:23;;;;;;;;;;;24.50;39.60;;;;;;1588059;73;733;-67
2022/05/29 05:50:25;;;;;;;;;;;24.50;39.40;;;;;;1588166;73;673;-69
2022/05/29 05:52:27;;;;;;;;;;;24.50;39.10;;;;;;1589768;73;1159;-69
2022/05/29 05:54:30;;;;;;;;;;;24.60;38.90;;;;;;1601413;73;585;-68
2022/05/29 05:56:32;;;;;;;;;;;24.70;38.70;;;;;;1593490;73;709;-69
2022/05/29 05:58:34;;;;;;;;;;;24.70;38.20;;;;;;1596036;73;639;-69
2022/05/29 06:00:36;;;;;;;;;;;24.80;37.80;;;;;;1593059;73;1947;-68
2022/05/29 06:02:39;;;;;;;;;;;24.80;37.50;;;;;;1588591;73;1143;-69
2022/05/29 06:04:42;;;;;;;;;;;24.80;37.00;;;;;;1583060;73;810;-69
2022/05/29 06:06:43;;;;;;;;;;;24.80;36.00;;;;;;1591306;73;1449;-69
2022/05/29 06:08:45;;;;;;;;;;;24.90;36.00;;;;;;1584313;73;676;-68
2022/05/29 06:10:47;;;;;;;;;;;24.80;35.10;;;;;;1607920;73;726;-67
2022/05/29 06:12:50;;;;;;;;;;;24.80;35.10;;;;;;1588220;73;1221;-68
2022/05/29 06:14:54;;;;;;;;;;;24.80;35.20;;;;;;1586756;73;704;-71
2022/05/29 06:16:55;;;;;;;;;;;24.80;35.10;;;;;;1577760;73;1441;-70
2022/05/29 06:18:57;;;;;;;;;;;24.80;35.00;;;;;;1592858;73;934;-68
2022/05/29 06:21:00;;;;;;;;;;;24.90;35.00;;;;;;1586477;73;1932;-68
2022/05/29 06:23:02;;;;;;;;;;;24.90;34.70;;;;;;1589810;73;1927;-69
2022/05/29 06:25:04;;;;;;;;;;;24.90;34.90;;;;;;1588878;73;567;-68
2022/05/29 06:27:06;;;;;;;;;;;24.90;34.50;;;;;;1587364;73;686;-69
2022/05/29 06:29:08;;;;;;;;;;;24.90;34.40;;;;;;1589672;73;717;-69
2022/05/29 06:31:11;;;;;;;;;;;24.90;34.00;;;;;;1587704;73;1151;-69
2022/05/29 06:33:13;;;;;;;;;;;25.00;34.00;;;;;;1590317;73;753;-69
2022/05/29 06:35:15;;;;;;;;;;;24.90;33.90;;;;;;1590973;73;761;-68
2022/05/29 06:37:17;;;;;;;;;;;24.90;33.90;;;;;;1586433;73;679;-70
2022/05/29 06:39:21;;;;;;;;;;;25.00;33.60;;;;;;1590272;73;755;-68
2022/05/29 06:41:22;;;;;;;;;;;25.00;33.70;;;;;;1595785;73;1934;-67
2022/05/29 06:43:24;;;;;;;;;;;25.00;33.00;;;;;;1586918;73;689;-69
2022/05/29 06:45:26;;;;;;;;;;;25.00;33.10;;;;;;1597229;73;698;-68
2022/05/29 06:47:28;;;;;;;;;;;25.00;32.90;;;;;;1586047;73;580;-69
2022/05/29 06:49:30;;;;;;;;;;;25.00;32.90;;;;;;1601343;73;635;-69
2022/05/29 06:51:32;;;;;;;;;;;25.00;32.80;;;;;;1592292;73;1324;-69
2022/05/29 06:53:34;;;;;;;;;;;25.00;32.60;;;;;;1591577;73;799;-68
2022/05/29 06:55:35;;;;;;;;;;;25.00;32.30;;;;;;1591363;73;681;-69
2022/05/29 06:57:40;;;;;;;;;;;25.00;32.50;;;;;;1593531;73;676;-69
2022/05/29 07:08:59;;;;;;;;;;;25.00;32.30;;;;;;1553476;73;1674;-69
2022/05/29 07:11:03;;;;;;;;;;;25.00;32.30;;;;;;1594779;73;700;-69
2022/05/29 07:13:05;;;;;;;;;;;25.10;32.40;;;;;;1575851;73;1866;-69
2022/05/29 07:15:07;;;;;;;;;;;25.10;32.70;;;;;;1589861;73;732;-67
2022/05/29 07:17:11;;;;;;;;;;;25.10;32.40;;;;;;1598156;73;677;-67
2022/05/29 07:19:13;;;;;;;;;;;25.10;32.30;;;;;;1596292;73;720;-68
2022/05/29 07:21:16;;;;;;;;;;;25.10;31.80;;;;;;1589729;73;1907;-69
2022/05/29 07:23:18;;;;;;;;;;;25.10;31.90;;;;;;1593020;73;720;-69
2022/05/29 07:25:19;;;;;;;;;;;25.10;32.10;;;;;;1597841;73;673;-69
2022/05/29 07:27:21;;;;;;;;;;;25.10;32.10;;;;;;1598778;73;617;-68
2022/05/29 07:29:23;;;;;;;;;;;25.10;31.80;;;;;;1593661;73;697;-69
2022/05/29 07:31:25;;;;;;;;;;;25.10;31.30;;;;;;1581881;73;1127;-69
2022/05/29 07:33:27;;;;;;;;;;;25.10;31.60;;;;;;1585907;73;981;-68
2022/05/29 07:35:29;;;;;;;;;;;25.10;31.70;;;;;;1587107;73;603;-68
2022/05/29 07:37:31;;;;;;;;;;;25.10;31.80;;;;;;1591206;73;602;-67
2022/05/29 07:39:40;;;;;;;;;;;25.20;32.00;;;;;;1588218;73;703;-67
2022/05/29 07:44:02;;;;;;;;;;;25.20;31.90;;;;;;1589907;73;628;-69
2022/05/29 07:46:04;;;;;;;;;;;25.20;32.00;;;;;;1591386;73;709;-68
2022/05/29 07:48:06;;;;;;;;;;;25.20;32.10;;;;;;1584529;73;670;-68
2022/05/29 07:50:09;;;;;;;;;;;25.20;32.10;;;;;;1593406;73;717;-68
2022/05/29 07:52:11;;;;;;;;;;;25.20;32.00;;;;;;1592100;73;1135;-68
2022/05/29 07:54:13;;;;;;;;;;;25.30;31.80;;;;;;1590815;73;801;-69
2022/05/29 07:56:16;;;;;;;;;;;25.30;31.90;;;;;;1588655;73;724;-68
2022/05/29 07:58:18;;;;;;;;;;;25.30;31.80;;;;;;1579839;73;1474;-69
2022/05/29 08:00:20;;;;;;;;;;;25.30;31.70;;;;;;1590220;73;683;-68
2022/05/29 08:02:22;;;;;;;;;;;25.30;31.70;;;;;;1587056;73;1936;-68
2022/05/29 08:04:24;;;;;;;;;;;25.20;31.30;;;;;;1589525;73;635;-69
2022/05/29 08:06:26;;;;;;;;;;;25.10;31.30;;;;;;1589215;73;718;-69
2022/05/29 08:08:29;;;;;;;;;;;25.10;31.20;;;;;;1585531;73;743;-67
2022/05/29 08:10:32;;;;;;;;;;;25.10;31.30;;;;;;1582852;73;684;-68
2022/05/29 08:12:34;;;;;;;;;;;25.00;31.20;;;;;;1592094;73;1148;-69
2022/05/29 08:14:36;;;;;;;;;;;25.00;31.00;;;;;;1586746;73;708;-68
2022/05/29 08:16:39;;;;;;;;;;;25.00;31.10;;;;;;1587645;73;567;-69
2022/05/29 08:18:41;;;;;;;;;;;25.00;31.20;;;;;;1587246;73;753;-68
2022/05/29 08:20:43;;;;;;;;;;;24.90;31.10;;;;;;1589678;73;1929;-68
2022/05/29 08:22:45;;;;;;;;;;;25.00;31.30;;;;;;1584000;73;1140;-69
2022/05/29 08:31:46;;;;;;;;;;;24.90;31.40;;;;;;1586560;73;1910;-69
2022/05/29 08:33:48;;;;;;;;;;;25.00;31.40;;;;;;1587012;73;724;-68
2022/05/29 08:35:51;;;;;;;;;;;25.00;31.50;;;;;;1587875;73;750;-67
2022/05/29 08:37:54;;;;;;;;;;;24.90;30.50;;;;;;1586671;73;1719;-69
2022/05/29 08:39:56;;;;;;;;;;;25.00;30.20;;;;;;1587612;73;689;-69
2022/05/29 08:41:58;;;;;;;;;;;24.90;30.60;;;;;;1586999;73;1940;-69
2022/05/29 08:44:08;;;;;;;;;;;25.00;30.70;;;;;;1586284;73;685;-69
2022/05/29 08:46:11;;;;;;;;;;;24.90;31.00;;;;;;1567668;73;1480;-68
2022/05/29 08:48:15;;;;;;;;;;;24.90;31.10;;;;;;1586026;73;1932;-69
2022/05/29 08:50:21;;;;;;;;;;;25.00;31.00;;;;;;1587639;73;788;-69
2022/05/29 08:52:43;;;;;;;;;;;25.00;30.90;;;;;;1581613;73;1119;-69
2022/05/29 08:54:52;;;;;;;;;;;25.00;30.70;;;;;;1584124;73;1492;-69
2022/05/29 08:57:14;;;;;;;;;;;24.90;29.70;;;;;;1589115;73;664;-69
2022/05/29 08:59:17;;;;;;;;;;;24.80;30.40;;;;;;1587023;73;667;-70
2022/05/29 09:01:37;;;;;;;;;;;24.80;30.10;;;;;;1586104;73;1925;-69
2022/05/29 09:03:47;;;;;;;;;;;24.70;30.20;;;;;;1586222;73;601;-67
2022/05/29 09:05:51;;;;;;;;;;;24.70;30.50;;;;;;1587562;73;1408;-68
2022/05/29 09:07:53;;;;;;;;;;;24.60;30.50;;;;;;1588557;73;1063;-69
2022/05/29 09:09:57;;;;;;;;;;;24.50;30.70;;;;;;1586822;73;735;-70
2022/05/29 09:11:59;;;;;;;;;;;24.50;30.80;;;;;;1588700;73;1103;-69
2022/05/29 09:14:21;;;;;;;;;;;24.50;30.90;;;;;;1586867;73;645;-69
2022/05/29 09:16:24;;;;;;;;;;;24.50;31.00;;;;;;1588021;73;658;-70
2022/05/29 09:18:30;;;;;;;;;;;24.40;31.00;;;;;;1591994;73;722;-69
2022/05/29 09:20:37;;;;;;;;;;;24.30;31.00;;;;;;1590790;73;701;-70
2022/05/29 09:22:40;;;;;;;;;;;24.30;31.00;;;;;;1593385;73;1964;-70
2022/05/29 09:24:46;;;;;;;;;;;24.30;30.90;;;;;;1590231;73;673;-70
2022/05/29 09:26:48;;;;;;;;;;;24.20;30.90;;;;;;1528598;73;1008;-71
2022/05/29 09:28:50;;;;;;;;;;;24.30;31.20;;;;;;1589914;73;637;-70
2022/05/29 09:30:53;;;;;;;;;;;24.20;31.30;;;;;;1594959;73;623;-72
2022/05/29 09:32:56;;;;;;;;;;;24.20;31.40;;;;;;1592077;73;1193;-71
2022/05/29 09:35:00;;;;;;;;;;;24.10;31.50;;;;;;1593083;73;666;-71
2022/05/29 09:37:03;;;;;;;;;;;24.10;31.60;;;;;;1592226;73;679;-71
2022/05/29 09:39:06;;;;;;;;;;;24.00;31.60;;;;;;1587719;73;943;-71
2022/05/29 09:41:26;;;;;;;;;;;24.00;31.70;;;;;;1593675;73;1920;-71
2022/05/29 09:43:29;;;;;;;;;;;24.10;32.00;;;;;;1586581;73;708;-71
2022/05/29 09:45:32;;;;;;;;;;;24.10;32.10;;;;;;1594637;73;562;-70
2022/05/29 09:50:05;;;;;;;;;;;23.90;32.10;;;;;;1579220;73;1650;-70
2022/05/29 09:52:08;;;;;;;;;;;23.90;32.10;;;;;;1587487;73;2069;-69
2022/05/29 09:54:10;;;;;;;;;;;24.00;32.20;;;;;;1580069;74;1008;-68
2022/05/29 09:56:13;;;;;;;;;;;23.90;32.30;;;;;;1592788;74;532;-68
2022/05/29 09:58:16;;;;;;;;;;;23.90;32.30;;;;;;1584463;74;702;-68
2022/05/29 10:00:26;;;;;;;;;;;23.90;32.30;;;;;;1579198;75;2138;-70
2022/05/29 10:02:28;;;;;;;;;;;23.90;32.40;;;;;;1566557;74;1934;-65
2022/05/29 10:04:37;;;;;;;;;;;23.90;32.40;;;;;;1547180;75;638;-69
2022/05/29 10:06:42;;;;;;;;;;;23.90;32.70;;;;;;1567607;75;691;-68
2022/05/29 10:08:45;;;;;;;;;;;23.90;33.00;;;;;;1552912;75;702;-70
2022/05/29 10:10:47;;;;;;;;;;;23.90;32.80;;;;;;1561440;75;675;-70
2022/05/29 10:12:49;;;;;;;;;;;23.90;32.70;;;;;;1536316;75;1174;-68
2022/05/29 10:14:51;;;;;;;;;;;23.90;32.60;;;;;;1556736;75;774;-69
2022/05/29 10:16:55;;;;;;;;;;;23.80;32.40;;;;;;1549976;75;707;-69
2022/05/29 10:18:57;;;;;;;;;;;23.80;32.30;;;;;;1548439;75;947;-69
2022/05/29 10:21:03;;;;;;;;;;;23.90;32.40;;;;;;1551616;75;812;-69
2022/05/29 10:23:10;;;;;;;;;;;23.90;32.60;;;;;;1534408;75;1945;-69
2022/05/29 10:25:19;;;;;;;;;;;23.80;32.60;;;;;;1546924;76;772;-69
2022/05/29 10:27:31;;;;;;;;;;;23.80;32.80;;;;;;1546234;75;1870;-69
2022/05/29 10:29:34;;;;;;;;;;;23.80;32.80;;;;;;1540007;75;732;-69
2022/05/29 10:31:37;;;;;;;;;;;23.80;33.00;;;;;;1559223;75;1093;-67
2022/05/29 10:33:38;;;;;;;;;;;23.80;33.10;;;;;;1552665;75;710;-66
2022/05/29 10:35:41;;;;;;;;;;;23.80;33.20;;;;;;1550259;75;686;-70
2022/05/29 10:37:43;;;;;;;;;;;23.80;33.20;;;;;;1562910;75;758;-67
2022/05/29 10:39:45;;;;;;;;;;;23.80;33.10;;;;;;1552700;75;760;-67
2022/05/29 10:41:47;;;;;;;;;;;23.80;33.20;;;;;;1543806;75;1944;-66
2022/05/29 10:43:55;;;;;;;;;;;23.80;33.20;;;;;;1539446;75;761;-67
2022/05/29 10:45:53;;;;;;;;;;;23.80;33.20;;;;;;1560963;75;1062;-65
2022/05/29 10:48:00;;;;;;;;;;;23.80;33.10;;;;;;1542089;75;1674;-67
2022/05/29 10:50:20;;;;;;;;;;;23.80;33.10;;;;;;1547400;75;1114;-67
2022/05/29 10:52:39;;;;;;;;;;;23.70;32.90;;;;;;1556666;75;1191;-67
2022/05/29 10:54:49;;;;;;;;;;;23.70;33.10;;;;;;1543081;75;604;-67
2022/05/29 10:57:10;;;;;;;;;;;23.80;33.10;;;;;;1528561;75;778;-70
2022/05/29 10:59:17;;;;;;;;;;;23.70;33.10;;;;;;1562836;75;1898;-66
2022/05/29 11:03:45;;;;;;;;;;;23.60;33.10;;;;;;1548358;75;756;-69
2022/05/29 11:06:04;;;;;;;;;;;23.70;33.10;;;;;;1542465;75;1877;-68
2022/05/29 11:08:08;;;;;;;;;;;23.70;32.90;;;;;;1553999;75;655;-68
2022/05/29 11:10:21;;;;;;;;;;;23.70;32.80;;;;;;1545486;75;1888;-67
2022/05/29 11:12:24;;;;;;;;;;;23.60;32.60;;;;;;1564373;74;1924;-67
2022/05/29 11:14:28;;;;;;;;;;;23.60;32.60;;;;;;1541260;75;1864;-69
2022/05/29 11:16:34;;;;;;;;;;;23.60;32.60;;;;;;1531154;75;1869;-67
2022/05/29 11:18:44;;;;;;;;;;;23.70;32.80;;;;;;1554863;75;1851;-67
2022/05/29 11:20:59;;;;;;;;;;;23.60;32.60;;;;;;1551835;75;1344;-67
2022/05/29 11:23:16;;;;;;;;;;;23.60;32.80;;;;;;1563825;75;1900;-68
2022/05/29 11:25:29;;;;;;;;;;;23.50;32.90;;;;;;1569971;75;1599;-68
2022/05/29 11:27:37;;;;;;;;;;;23.60;32.90;;;;;;1543131;76;572;-70
2022/05/29 11:29:39;;;;;;;;;;;23.50;32.90;;;;;;1549711;75;1836;-68
2022/05/29 11:31:58;;;;;;;;;;;23.60;32.80;;;;;;1562964;75;1163;-66
2022/05/29 11:34:18;;;;;;;;;;;23.50;33.00;;;;;;1544177;75;1871;-69
2022/05/29 11:36:24;;;;;;;;;;;23.50;33.10;;;;;;1549039;75;809;-69
2022/05/29 11:38:27;;;;;;;;;;;23.50;33.30;;;;;;1566233;75;674;-69
2022/05/29 11:40:30;;;;;;;;;;;23.50;33.30;;;;;;1562204;75;798;-67
2022/05/29 11:42:34;;;;;;;;;;;23.50;33.20;;;;;;1534344;75;1958;-67
2022/05/29 11:44:41;;;;;;;;;;;23.50;33.30;;;;;;1546265;75;1644;-70
2022/05/29 11:51:31;;;;;;;;;;;23.50;33.40;;;;;;1475838;79;1116;-69
2022/05/29 11:53:37;;;;;;;;;;;23.50;33.40;;;;;;1477204;79;1530;-67
2022/05/29 11:55:39;;;;;;;;;;;23.50;33.40;;;;;;1496716;79;778;-68
2022/05/29 11:57:49;;;;;;;;;;;23.50;33.40;;;;;;1519592;75;772;-67
2022/05/29 11:59:55;;;;;;;;;;;23.50;33.40;;;;;;1546673;75;675;-67
2022/05/29 12:02:15;;;;;;;;;;;23.50;33.40;;;;;;1540097;75;1919;-66
2022/05/29 12:04:27;;;;;;;;;;;23.50;33.50;;;;;;1543149;76;661;-67
2022/05/29 12:06:33;;;;;;;;;;;23.60;33.60;;;;;;1549757;75;717;-67
2022/05/29 12:08:36;;;;;;;;;;;23.50;33.60;;;;;;1552560;75;690;-68
2022/05/29 12:10:43;;;;;;;;;;;23.50;33.60;;;;;;1572811;75;769;-67
2022/05/29 12:12:46;;;;;;;;;;;23.50;33.60;;;;;;1545342;75;2017;-68
2022/05/29 12:15:02;;;;;;;;;;;23.50;33.60;;;;;;1543800;75;778;-67
2022/05/29 12:17:06;;;;;;;;;;;23.50;33.50;;;;;;1562596;75;773;-67
2022/05/29 12:19:24;;;;;;;;;;;23.50;33.40;;;;;;1558705;75;2119;-67
2022/05/29 12:21:28;;;;;;;;;;;23.50;33.30;;;;;;1555654;75;1801;-67
2022/05/29 12:23:31;;;;;;;;;;;23.60;33.50;;;;;;1556310;74;1927;-68
2022/05/29 12:25:43;;;;;;;;;;;23.50;33.40;;;;;;1566375;75;695;-67
2022/05/29 12:27:45;;;;;;;;;;;23.60;33.40;;;;;;1534030;75;1894;-65
2022/05/29 12:30:04;;;;;;;;;;;23.50;33.30;;;;;;1548366;75;733;-68
2022/05/29 12:32:07;;;;;;;;;;;23.50;33.20;;;;;;1568093;75;1162;-67
2022/05/29 12:34:10;;;;;;;;;;;23.50;33.20;;;;;;1551755;75;686;-69
2022/05/29 12:36:14;;;;;;;;;;;23.50;33.40;;;;;;1561074;75;1591;-70
2022/05/29 12:38:20;;;;;;;;;;;23.50;33.30;;;;;;1550502;75;1796;-67
2022/05/29 12:40:39;;;;;;;;;;;23.50;33.30;;;;;;1535026;76;1568;-67
2022/05/29 12:42:55;;;;;;;;;;;23.50;33.30;;;;;;1529340;75;1960;-64
2022/05/29 12:45:17;;;;;;;;;;;23.50;33.30;;;;;;1547153;75;1977;-64
2022/05/29 12:47:32;;;;;;;;;;;23.50;33.30;;;;;;1528556;77;1074;-65
2022/05/29 12:49:52;;;;;;;;;;;23.50;33.40;;;;;;1525441;77;1821;-66
2022/05/29 12:52:04;;;;;;;;;;;23.40;33.20;;;;;;1519531;76;1168;-68
2022/05/29 12:54:08;;;;;;;;;;;23.50;33.30;;;;;;1543605;76;1869;-66
2022/05/29 12:56:21;;;;;;;;;;;23.40;33.10;;;;;;1543905;75;1679;-64
2022/05/29 12:58:41;;;;;;;;;;;23.40;33.20;;;;;;1547645;75;680;-66